sensor_id;sensor_type;location;lat;lon;timestamp;temperature;humidity
21271;DHT22;10795;50.796;3.860;2023-03-01T00:02:12;1.40;99.90
21271;DHT22;10795;50.796;3.860;2023-03-01T00:04:38;1.00;99.90
21271;DHT22;10795;50.796;3.860;2023-03-01T00:07:03;0.80;99.90
21271;DHT22;10795;50.796;3.860;2023-03-01T00:09:29;0.80;99.90
21271;DHT22;10795;50.796;3.860;2023-03-01T00:11:55;0.80;99.90
21271;DHT22;10795;50.796;3.860;2023-03-01T00:14:21;0.70;99.90
21271;DHT22;10795;50.796;3.860;2023-03-01T00:16:47;0.70;99.90
21271;DHT22;10795;50.796;3.860;2023-03-01T00:19:15;0.50;99.90
21271;DHT22;10795;50.796;3.860;2023-03-01T00:21:42;0.70;99.90
21271;DHT22;10795;50.796;3.860;2023-03-01T00:24:09;0.80;99.90
21271;DHT22;10795;50.796;3.860;2023-03-01T00:26:38;0.90;99.90
21271;DHT22;10795;50.796;3.860;2023-03-01T00:29:04;1.30;99.90
21271;DHT22;10795;50.796;3.860;2023-03-01T00:31:31;1.40;99.90
21271;DHT22;10795;50.796;3.860;2023-03-01T00:34:03;1.50;99.90
21271;DHT22;10795;50.796;3.860;2023-03-01T00:36:32;1.40;99.90
21271;DHT22;10795;50.796;3.860;2023-03-01T00:38:59;1.50;99.90
21271;DHT22;10795;50.796;3.860;2023-03-01T00:41:25;1.50;99.90
21271;DHT22;10795;50.796;3.860;2023-03-01T00:43:54;1.10;99.90
21271;DHT22;10795;50.796;3.860;2023-03-01T00:46:23;1.40;99.90
21271;DHT22;10795;50.796;3.860;2023-03-01T00:48:49;1.50;99.90
21271;DHT22;10795;50.796;3.860;2023-03-01T00:51:17;2.00;99.90
21271;DHT22;10795;50.796;3.860;2023-03-01T00:53:46;2.40;99.90
21271;DHT22;10795;50.796;3.860;2023-03-01T00:56:14;1.90;99.90
21271;DHT22;10795;50.796;3.860;2023-03-01T00:58:41;1.20;99.90
21271;DHT22;10795;50.796;3.860;2023-03-01T01:01:14;1.10;99.90
21271;DHT22;10795;50.796;3.860;2023-03-01T01:03:55;0.90;99.90
21271;DHT22;10795;50.796;3.860;2023-03-01T01:06:24;1.00;99.90
21271;DHT22;10795;50.796;3.860;2023-03-01T01:08:51;1.50;99.90
21271;DHT22;10795;50.796;3.860;2023-03-01T01:11:18;1.70;99.90
21271;DHT22;10795;50.796;3.860;2023-03-01T01:13:46;1.70;99.90
21271;DHT22;10795;50.796;3.860;2023-03-01T01:16:12;1.90;99.90
21271;DHT22;10795;50.796;3.860;2023-03-01T01:18:38;1.60;99.90
21271;DHT22;10795;50.796;3.860;2023-03-01T01:21:11;1.60;99.90
21271;DHT22;10795;50.796;3.860;2023-03-01T01:23:40;1.50;99.90
21271;DHT22;10795;50.796;3.860;2023-03-01T01:26:15;1.60;99.90
21271;DHT22;10795;50.796;3.860;2023-03-01T01:28:43;2.00;99.90
21271;DHT22;10795;50.796;3.860;2023-03-01T01:31:09;2.20;99.90
21271;DHT22;10795;50.796;3.860;2023-03-01T01:33:38;2.40;99.90
21271;DHT22;10795;50.796;3.860;2023-03-01T01:36:05;2.50;99.90
21271;DHT22;10795;50.796;3.860;2023-03-01T01:38:36;2.70;99.90
21271;DHT22;10795;50.796;3.860;2023-03-01T01:41:06;2.60;99.90
21271;DHT22;10795;50.796;3.860;2023-03-01T01:43:39;2.60;99.90
21271;DHT22;10795;50.796;3.860;2023-03-01T01:49:01;2.50;99.90
21271;DHT22;10795;50.796;3.860;2023-03-01T01:51:32;2.40;99.90
21271;DHT22;10795;50.796;3.860;2023-03-01T01:54:10;2.40;99.90
21271;DHT22;10795;50.796;3.860;2023-03-01T01:56:38;2.50;99.90
21271;DHT22;10795;50.796;3.860;2023-03-01T01:59:04;2.30;99.90
21271;DHT22;10795;50.796;3.860;2023-03-01T02:01:30;2.20;99.90
21271;DHT22;10795;50.796;3.860;2023-03-01T02:03:56;2.20;99.90
21271;DHT22;10795;50.796;3.860;2023-03-01T02:06:29;1.90;99.90
21271;DHT22;10795;50.796;3.860;2023-03-01T02:09:04;2.30;99.90
21271;DHT22;10795;50.796;3.860;2023-03-01T02:11:32;2.30;99.90
21271;DHT22;10795;50.796;3.860;2023-03-01T02:14:03;2.50;99.90
21271;DHT22;10795;50.796;3.860;2023-03-01T02:16:30;2.40;99.90
21271;DHT22;10795;50.796;3.860;2023-03-01T02:18:56;2.50;99.90
21271;DHT22;10795;50.796;3.860;2023-03-01T02:21:37;2.30;99.90
21271;DHT22;10795;50.796;3.860;2023-03-01T02:26:51;2.30;99.90
21271;DHT22;10795;50.796;3.860;2023-03-01T02:29:19;2.40;99.90
21271;DHT22;10795;50.796;3.860;2023-03-01T02:31:45;2.20;99.90
21271;DHT22;10795;50.796;3.860;2023-03-01T02:34:13;2.00;99.90
21271;DHT22;10795;50.796;3.860;2023-03-01T02:36:52;2.20;99.90
21271;DHT22;10795;50.796;3.860;2023-03-01T02:39:24;2.40;99.90
21271;DHT22;10795;50.796;3.860;2023-03-01T02:41:54;2.10;99.90
21271;DHT22;10795;50.796;3.860;2023-03-01T02:44:22;1.90;99.90
21271;DHT22;10795;50.796;3.860;2023-03-01T02:46:52;2.00;99.90
21271;DHT22;10795;50.796;3.860;2023-03-01T02:49:28;2.00;99.90
21271;DHT22;10795;50.796;3.860;2023-03-01T02:52:23;1.90;99.90
21271;DHT22;10795;50.796;3.860;2023-03-01T02:55:06;2.20;99.90
21271;DHT22;10795;50.796;3.860;2023-03-01T02:57:34;1.70;99.90
21271;DHT22;10795;50.796;3.860;2023-03-01T03:00:07;1.50;99.90
21271;DHT22;10795;50.796;3.860;2023-03-01T03:02:35;1.90;99.90
21271;DHT22;10795;50.796;3.860;2023-03-01T03:05:12;2.20;99.90
21271;DHT22;10795;50.796;3.860;2023-03-01T03:07:41;2.20;99.90
21271;DHT22;10795;50.796;3.860;2023-03-01T03:10:23;2.20;99.90
21271;DHT22;10795;50.796;3.860;2023-03-01T03:12:57;2.00;99.90
21271;DHT22;10795;50.796;3.860;2023-03-01T03:15:25;2.20;99.90
21271;DHT22;10795;50.796;3.860;2023-03-01T03:17:52;2.40;99.90
21271;DHT22;10795;50.796;3.860;2023-03-01T03:20:20;2.30;99.90
21271;DHT22;10795;50.796;3.860;2023-03-01T03:22:49;2.20;99.90
21271;DHT22;10795;50.796;3.860;2023-03-01T03:25:16;2.30;99.90
21271;DHT22;10795;50.796;3.860;2023-03-01T03:27:44;2.30;99.90
21271;DHT22;10795;50.796;3.860;2023-03-01T03:30:14;2.30;99.90
21271;DHT22;10795;50.796;3.860;2023-03-01T03:32:44;2.40;99.90
21271;DHT22;10795;50.796;3.860;2023-03-01T03:37:51;2.40;99.90
21271;DHT22;10795;50.796;3.860;2023-03-01T03:40:33;2.50;99.90
21271;DHT22;10795;50.796;3.860;2023-03-01T03:43:00;2.10;99.90
21271;DHT22;10795;50.796;3.860;2023-03-01T03:45:26;2.20;99.90
21271;DHT22;10795;50.796;3.860;2023-03-01T03:47:52;2.30;99.90
21271;DHT22;10795;50.796;3.860;2023-03-01T03:50:18;2.00;99.90
21271;DHT22;10795;50.796;3.860;2023-03-01T03:52:44;2.20;99.90
21271;DHT22;10795;50.796;3.860;2023-03-01T03:55:11;2.00;99.90
21271;DHT22;10795;50.796;3.860;2023-03-01T03:57:38;2.00;99.90
21271;DHT22;10795;50.796;3.860;2023-03-01T04:00:06;1.90;99.90
21271;DHT22;10795;50.796;3.860;2023-03-01T04:02:40;2.00;99.90
21271;DHT22;10795;50.796;3.860;2023-03-01T04:05:08;2.30;99.90
21271;DHT22;10795;50.796;3.860;2023-03-01T04:07:35;2.10;99.90
21271;DHT22;10795;50.796;3.860;2023-03-01T04:10:03;2.00;99.90
21271;DHT22;10795;50.796;3.860;2023-03-01T04:12:31;2.20;99.90
21271;DHT22;10795;50.796;3.860;2023-03-01T04:15:03;1.90;99.90
21271;DHT22;10795;50.796;3.860;2023-03-01T04:17:45;1.80;99.90
21271;DHT22;10795;50.796;3.860;2023-03-01T04:20:13;1.90;99.90
21271;DHT22;10795;50.796;3.860;2023-03-01T04:22:43;1.90;99.90
21271;DHT22;10795;50.796;3.860;2023-03-01T04:25:08;1.90;99.90
21271;DHT22;10795;50.796;3.860;2023-03-01T04:27:37;1.90;99.90
21271;DHT22;10795;50.796;3.860;2023-03-01T04:30:04;2.10;99.90
21271;DHT22;10795;50.796;3.860;2023-03-01T04:32:30;2.10;99.90
21271;DHT22;10795;50.796;3.860;2023-03-01T04:34:55;2.20;99.90
21271;DHT22;10795;50.796;3.860;2023-03-01T04:37:21;2.00;99.90
21271;DHT22;10795;50.796;3.860;2023-03-01T04:39:55;2.10;99.90
21271;DHT22;10795;50.796;3.860;2023-03-01T04:42:21;2.20;99.90
21271;DHT22;10795;50.796;3.860;2023-03-01T04:44:47;2.10;99.90
21271;DHT22;10795;50.796;3.860;2023-03-01T04:47:12;2.00;99.90
21271;DHT22;10795;50.796;3.860;2023-03-01T04:49:38;2.00;99.90
21271;DHT22;10795;50.796;3.860;2023-03-01T04:52:07;1.90;99.90
21271;DHT22;10795;50.796;3.860;2023-03-01T04:54:34;1.70;99.90
21271;DHT22;10795;50.796;3.860;2023-03-01T04:57:03;1.70;99.90
21271;DHT22;10795;50.796;3.860;2023-03-01T04:59:31;1.70;99.90
21271;DHT22;10795;50.796;3.860;2023-03-01T05:01:57;1.70;99.90
21271;DHT22;10795;50.796;3.860;2023-03-01T05:04:26;1.80;99.90
21271;DHT22;10795;50.796;3.860;2023-03-01T05:06:52;1.70;99.90
21271;DHT22;10795;50.796;3.860;2023-03-01T05:09:19;1.90;99.90
21271;DHT22;10795;50.796;3.860;2023-03-01T05:11:45;1.80;99.90
21271;DHT22;10795;50.796;3.860;2023-03-01T05:14:12;1.70;99.90
21271;DHT22;10795;50.796;3.860;2023-03-01T05:16:37;1.90;99.90
21271;DHT22;10795;50.796;3.860;2023-03-01T05:19:04;1.90;99.90
21271;DHT22;10795;50.796;3.860;2023-03-01T05:21:39;1.70;99.90
21271;DHT22;10795;50.796;3.860;2023-03-01T05:24:28;1.70;99.90
21271;DHT22;10795;50.796;3.860;2023-03-01T05:26:55;1.70;99.90
21271;DHT22;10795;50.796;3.860;2023-03-01T05:29:22;1.60;99.90
21271;DHT22;10795;50.796;3.860;2023-03-01T05:31:54;1.40;99.90
21271;DHT22;10795;50.796;3.860;2023-03-01T05:34:25;1.10;99.90
21271;DHT22;10795;50.796;3.860;2023-03-01T05:36:54;0.90;99.90
21271;DHT22;10795;50.796;3.860;2023-03-01T05:39:25;0.70;99.90
21271;DHT22;10795;50.796;3.860;2023-03-01T05:41:59;1.20;99.90
21271;DHT22;10795;50.796;3.860;2023-03-01T05:44:26;0.80;99.90
21271;DHT22;10795;50.796;3.860;2023-03-01T05:46:53;0.50;99.90
21271;DHT22;10795;50.796;3.860;2023-03-01T05:49:22;0.50;99.90
21271;DHT22;10795;50.796;3.860;2023-03-01T05:51:52;0.20;99.90
21271;DHT22;10795;50.796;3.860;2023-03-01T05:54:20;0.50;99.90
21271;DHT22;10795;50.796;3.860;2023-03-01T05:56:46;1.00;99.90
21271;DHT22;10795;50.796;3.860;2023-03-01T05:59:15;1.10;99.90
21271;DHT22;10795;50.796;3.860;2023-03-01T06:01:42;1.10;99.90
21271;DHT22;10795;50.796;3.860;2023-03-01T06:04:08;0.90;99.90
21271;DHT22;10795;50.796;3.860;2023-03-01T06:06:37;0.90;99.90
21271;DHT22;10795;50.796;3.860;2023-03-01T06:09:07;1.20;99.90
21271;DHT22;10795;50.796;3.860;2023-03-01T06:11:37;1.10;99.90
21271;DHT22;10795;50.796;3.860;2023-03-01T06:14:04;1.70;99.90
21271;DHT22;10795;50.796;3.860;2023-03-01T06:16:31;2.00;99.90
21271;DHT22;10795;50.796;3.860;2023-03-01T06:19:00;2.00;99.90
21271;DHT22;10795;50.796;3.860;2023-03-01T06:21:26;1.80;99.90
21271;DHT22;10795;50.796;3.860;2023-03-01T06:23:52;1.90;99.90
21271;DHT22;10795;50.796;3.860;2023-03-01T06:26:18;1.80;99.90
21271;DHT22;10795;50.796;3.860;2023-03-01T06:28:43;1.70;99.90
21271;DHT22;10795;50.796;3.860;2023-03-01T06:31:11;1.70;99.90
21271;DHT22;10795;50.796;3.860;2023-03-01T06:33:40;1.60;99.90
21271;DHT22;10795;50.796;3.860;2023-03-01T06:36:06;1.40;99.90
21271;DHT22;10795;50.796;3.860;2023-03-01T06:38:39;1.20;99.90
21271;DHT22;10795;50.796;3.860;2023-03-01T06:41:08;1.30;99.90
21271;DHT22;10795;50.796;3.860;2023-03-01T06:43:39;0.90;99.90
21271;DHT22;10795;50.796;3.860;2023-03-01T06:46:07;0.50;99.90
21271;DHT22;10795;50.796;3.860;2023-03-01T06:48:36;0.50;99.90
21271;DHT22;10795;50.796;3.860;2023-03-01T06:51:02;0.20;99.90
21271;DHT22;10795;50.796;3.860;2023-03-01T06:53:28;0.20;99.90
21271;DHT22;10795;50.796;3.860;2023-03-01T06:55:57;0.30;99.90
21271;DHT22;10795;50.796;3.860;2023-03-01T06:58:26;0.00;99.90
21271;DHT22;10795;50.796;3.860;2023-03-01T07:00:52;-0.30;99.90
21271;DHT22;10795;50.796;3.860;2023-03-01T07:03:39;-0.40;99.90
21271;DHT22;10795;50.796;3.860;2023-03-01T07:06:07;-0.30;99.90
21271;DHT22;10795;50.796;3.860;2023-03-01T07:08:51;-0.20;99.90
21271;DHT22;10795;50.796;3.860;2023-03-01T07:11:24;-0.10;99.90
21271;DHT22;10795;50.796;3.860;2023-03-01T07:13:57;0.00;99.90
21271;DHT22;10795;50.796;3.860;2023-03-01T07:16:25;0.20;99.90
21271;DHT22;10795;50.796;3.860;2023-03-01T07:18:51;0.60;99.90
21271;DHT22;10795;50.796;3.860;2023-03-01T07:21:17;0.80;99.90
21271;DHT22;10795;50.796;3.860;2023-03-01T07:23:43;1.50;99.90
21271;DHT22;10795;50.796;3.860;2023-03-01T07:26:11;1.60;99.90
21271;DHT22;10795;50.796;3.860;2023-03-01T07:28:37;1.50;99.90
21271;DHT22;10795;50.796;3.860;2023-03-01T07:31:08;1.40;99.90
21271;DHT22;10795;50.796;3.860;2023-03-01T07:33:40;1.40;99.90
21271;DHT22;10795;50.796;3.860;2023-03-01T07:36:13;1.70;99.90
21271;DHT22;10795;50.796;3.860;2023-03-01T07:38:39;1.70;99.90
21271;DHT22;10795;50.796;3.860;2023-03-01T07:41:05;1.80;99.90
21271;DHT22;10795;50.796;3.860;2023-03-01T07:43:33;1.90;99.90
21271;DHT22;10795;50.796;3.860;2023-03-01T07:46:03;2.10;99.90
21271;DHT22;10795;50.796;3.860;2023-03-01T07:48:32;2.30;99.90
21271;DHT22;10795;50.796;3.860;2023-03-01T07:51:03;2.40;99.90
21271;DHT22;10795;50.796;3.860;2023-03-01T07:53:29;2.60;99.90
21271;DHT22;10795;50.796;3.860;2023-03-01T07:56:10;2.90;99.90
21271;DHT22;10795;50.796;3.860;2023-03-01T07:58:41;3.10;99.90
21271;DHT22;10795;50.796;3.860;2023-03-01T08:01:09;3.20;99.90
21271;DHT22;10795;50.796;3.860;2023-03-01T08:03:38;3.60;99.90
21271;DHT22;10795;50.796;3.860;2023-03-01T08:06:08;3.80;99.90
21271;DHT22;10795;50.796;3.860;2023-03-01T08:08:35;3.90;99.90
21271;DHT22;10795;50.796;3.860;2023-03-01T08:11:03;4.30;99.90
21271;DHT22;10795;50.796;3.860;2023-03-01T08:13:30;4.50;99.90
21271;DHT22;10795;50.796;3.860;2023-03-01T08:16:08;4.70;99.90
21271;DHT22;10795;50.796;3.860;2023-03-01T08:18:35;5.00;99.90
21271;DHT22;10795;50.796;3.860;2023-03-01T08:21:03;5.20;99.90
21271;DHT22;10795;50.796;3.860;2023-03-01T08:23:29;5.50;99.90
21271;DHT22;10795;50.796;3.860;2023-03-01T08:26:02;5.60;99.90
21271;DHT22;10795;50.796;3.860;2023-03-01T08:28:28;5.80;99.90
21271;DHT22;10795;50.796;3.860;2023-03-01T08:30:54;5.90;99.90
21271;DHT22;10795;50.796;3.860;2023-03-01T08:33:20;6.10;99.90
21271;DHT22;10795;50.796;3.860;2023-03-01T08:35:46;6.30;99.90
21271;DHT22;10795;50.796;3.860;2023-03-01T08:38:12;6.40;99.90
21271;DHT22;10795;50.796;3.860;2023-03-01T08:40:37;6.60;99.90
21271;DHT22;10795;50.796;3.860;2023-03-01T08:43:03;6.80;99.90
21271;DHT22;10795;50.796;3.860;2023-03-01T08:45:30;6.80;99.90
21271;DHT22;10795;50.796;3.860;2023-03-01T08:47:59;7.00;99.90
21271;DHT22;10795;50.796;3.860;2023-03-01T08:50:24;7.10;99.90
21271;DHT22;10795;50.796;3.860;2023-03-01T08:52:50;7.20;99.90
21271;DHT22;10795;50.796;3.860;2023-03-01T08:55:16;7.30;99.90
21271;DHT22;10795;50.796;3.860;2023-03-01T08:57:43;7.30;99.90
21271;DHT22;10795;50.796;3.860;2023-03-01T09:00:10;7.40;99.90
21271;DHT22;10795;50.796;3.860;2023-03-01T09:02:40;7.60;99.90
21271;DHT22;10795;50.796;3.860;2023-03-01T09:05:06;7.80;99.90
21271;DHT22;10795;50.796;3.860;2023-03-01T09:07:32;7.90;99.90
21271;DHT22;10795;50.796;3.860;2023-03-01T09:09:59;8.00;99.90
21271;DHT22;10795;50.796;3.860;2023-03-01T09:12:24;8.10;99.90
21271;DHT22;10795;50.796;3.860;2023-03-01T09:14:50;8.30;99.90
21271;DHT22;10795;50.796;3.860;2023-03-01T09:17:16;8.70;99.90
21271;DHT22;10795;50.796;3.860;2023-03-01T09:19:42;8.60;99.90
21271;DHT22;10795;50.796;3.860;2023-03-01T09:22:08;8.60;99.90
21271;DHT22;10795;50.796;3.860;2023-03-01T09:24:33;8.50;99.90
21271;DHT22;10795;50.796;3.860;2023-03-01T09:27:02;8.70;99.90
21271;DHT22;10795;50.796;3.860;2023-03-01T09:29:28;8.70;99.90
21271;DHT22;10795;50.796;3.860;2023-03-01T09:31:54;8.80;99.90
21271;DHT22;10795;50.796;3.860;2023-03-01T09:34:21;8.90;99.90
21271;DHT22;10795;50.796;3.860;2023-03-01T09:36:49;9.00;99.90
21271;DHT22;10795;50.796;3.860;2023-03-01T09:39:18;9.00;99.90
21271;DHT22;10795;50.796;3.860;2023-03-01T09:41:54;9.00;99.90
21271;DHT22;10795;50.796;3.860;2023-03-01T09:44:36;9.20;99.90
21271;DHT22;10795;50.796;3.860;2023-03-01T09:47:04;9.30;99.90
21271;DHT22;10795;50.796;3.860;2023-03-01T09:49:35;9.30;99.90
21271;DHT22;10795;50.796;3.860;2023-03-01T09:52:45;9.20;99.90
21271;DHT22;10795;50.796;3.860;2023-03-01T09:55:17;9.50;99.90
21271;DHT22;10795;50.796;3.860;2023-03-01T10:00:48;9.40;99.90
21271;DHT22;10795;50.796;3.860;2023-03-01T10:03:39;9.60;99.90
21271;DHT22;10795;50.796;3.860;2023-03-01T10:06:19;9.50;99.90
21271;DHT22;10795;50.796;3.860;2023-03-01T10:08:49;9.50;99.90
21271;DHT22;10795;50.796;3.860;2023-03-01T10:11:24;9.70;99.90
21271;DHT22;10795;50.796;3.860;2023-03-01T10:17:07;9.50;99.90
21271;DHT22;10795;50.796;3.860;2023-03-01T10:19:46;9.40;99.90
21271;DHT22;10795;50.796;3.860;2023-03-01T10:22:36;9.50;99.90
21271;DHT22;10795;50.796;3.860;2023-03-01T10:25:02;9.60;99.90
21271;DHT22;10795;50.796;3.860;2023-03-01T10:27:51;9.60;99.90
21271;DHT22;10795;50.796;3.860;2023-03-01T10:30:39;9.20;99.90
21271;DHT22;10795;50.796;3.860;2023-03-01T10:33:36;9.30;99.90
21271;DHT22;10795;50.796;3.860;2023-03-01T10:36:05;9.50;99.90
21271;DHT22;10795;50.796;3.860;2023-03-01T10:38:52;9.50;99.90
21271;DHT22;10795;50.796;3.860;2023-03-01T10:41:22;9.30;99.90
21271;DHT22;10795;50.796;3.860;2023-03-01T10:44:00;9.40;99.90
21271;DHT22;10795;50.796;3.860;2023-03-01T10:46:36;9.50;99.90
21271;DHT22;10795;50.796;3.860;2023-03-01T10:51:31;9.60;99.90
21271;DHT22;10795;50.796;3.860;2023-03-01T10:53:57;9.40;99.90
21271;DHT22;10795;50.796;3.860;2023-03-01T10:56:25;9.50;99.90
21271;DHT22;10795;50.796;3.860;2023-03-01T10:59:00;9.80;99.90
21271;DHT22;10795;50.796;3.860;2023-03-01T11:01:34;9.70;99.90
21271;DHT22;10795;50.796;3.860;2023-03-01T11:04:13;10.00;99.90
21271;DHT22;10795;50.796;3.860;2023-03-01T11:06:42;9.50;99.90
21271;DHT22;10795;50.796;3.860;2023-03-01T11:09:18;9.50;99.90
21271;DHT22;10795;50.796;3.860;2023-03-01T11:11:44;9.60;99.90
21271;DHT22;10795;50.796;3.860;2023-03-01T11:14:20;9.70;99.90
21271;DHT22;10795;50.796;3.860;2023-03-01T11:17:02;9.80;99.90
21271;DHT22;10795;50.796;3.860;2023-03-01T11:19:28;9.90;99.90
21271;DHT22;10795;50.796;3.860;2023-03-01T11:22:18;10.00;99.90
21271;DHT22;10795;50.796;3.860;2023-03-01T11:24:50;10.00;99.90
21271;DHT22;10795;50.796;3.860;2023-03-01T11:27:28;10.10;99.90
21271;DHT22;10795;50.796;3.860;2023-03-01T11:32:28;10.40;99.90
21271;DHT22;10795;50.796;3.860;2023-03-01T11:35:18;10.30;99.90
21271;DHT22;10795;50.796;3.860;2023-03-01T11:38:03;10.10;99.90
21271;DHT22;10795;50.796;3.860;2023-03-01T11:43:58;10.40;99.90
21271;DHT22;10795;50.796;3.860;2023-03-01T12:08:23;11.00;99.90
21271;DHT22;10795;50.796;3.860;2023-03-01T12:14:16;10.80;99.90
21271;DHT22;10795;50.796;3.860;2023-03-01T12:17:02;11.20;99.90
21271;DHT22;10795;50.796;3.860;2023-03-01T12:22:29;11.10;99.90
21271;DHT22;10795;50.796;3.860;2023-03-01T12:25:02;11.50;99.90
21271;DHT22;10795;50.796;3.860;2023-03-01T12:49:16;11.60;99.90
21271;DHT22;10795;50.796;3.860;2023-03-01T12:52:01;11.80;99.90
21271;DHT22;10795;50.796;3.860;2023-03-01T12:54:36;11.60;99.90
21271;DHT22;10795;50.796;3.860;2023-03-01T12:57:23;11.60;99.90
21271;DHT22;10795;50.796;3.860;2023-03-01T13:03:25;11.70;99.90
21271;DHT22;10795;50.796;3.860;2023-03-01T13:06:07;12.00;99.90
21271;DHT22;10795;50.796;3.860;2023-03-01T13:09:09;12.00;99.90
21271;DHT22;10795;50.796;3.860;2023-03-01T13:11:42;11.90;99.90
21271;DHT22;10795;50.796;3.860;2023-03-01T13:16:52;12.00;99.90
21271;DHT22;10795;50.796;3.860;2023-03-01T13:19:29;11.90;99.90
21271;DHT22;10795;50.796;3.860;2023-03-01T13:22:01;12.10;99.90
21271;DHT22;10795;50.796;3.860;2023-03-01T13:24:44;12.40;99.90
21271;DHT22;10795;50.796;3.860;2023-03-01T13:27:22;12.10;99.90
21271;DHT22;10795;50.796;3.860;2023-03-01T13:30:02;12.00;99.90
21271;DHT22;10795;50.796;3.860;2023-03-01T13:32:38;12.30;99.90
21271;DHT22;10795;50.796;3.860;2023-03-01T13:37:47;11.90;99.90
21271;DHT22;10795;50.796;3.860;2023-03-01T13:44:08;12.00;99.90
21271;DHT22;10795;50.796;3.860;2023-03-01T13:46:38;12.10;99.90
21271;DHT22;10795;50.796;3.860;2023-03-01T13:49:09;11.50;99.90
21271;DHT22;10795;50.796;3.860;2023-03-01T13:51:40;11.40;99.90
21271;DHT22;10795;50.796;3.860;2023-03-01T13:54:11;11.30;99.90
21271;DHT22;10795;50.796;3.860;2023-03-01T13:56:37;11.60;99.90
21271;DHT22;10795;50.796;3.860;2023-03-01T13:59:19;11.50;99.90
21271;DHT22;10795;50.796;3.860;2023-03-01T14:01:54;11.40;99.90
21271;DHT22;10795;50.796;3.860;2023-03-01T14:07:09;11.30;99.90
21271;DHT22;10795;50.796;3.860;2023-03-01T14:09:39;11.40;99.90
21271;DHT22;10795;50.796;3.860;2023-03-01T14:18:25;11.20;99.90
21271;DHT22;10795;50.796;3.860;2023-03-01T14:20:54;11.30;99.90
21271;DHT22;10795;50.796;3.860;2023-03-01T14:23:22;11.30;99.90
21271;DHT22;10795;50.796;3.860;2023-03-01T14:25:54;11.10;99.90
21271;DHT22;10795;50.796;3.860;2023-03-01T14:28:27;11.00;99.90
21271;DHT22;10795;50.796;3.860;2023-03-01T14:30:58;10.90;99.90
21271;DHT22;10795;50.796;3.860;2023-03-01T14:33:29;10.90;99.90
21271;DHT22;10795;50.796;3.860;2023-03-01T14:36:01;10.70;99.90
21271;DHT22;10795;50.796;3.860;2023-03-01T14:41:07;10.90;99.90
21271;DHT22;10795;50.796;3.860;2023-03-01T14:43:36;10.70;99.90
21271;DHT22;10795;50.796;3.860;2023-03-01T14:46:03;10.60;99.90
21271;DHT22;10795;50.796;3.860;2023-03-01T14:48:29;10.70;99.90
21271;DHT22;10795;50.796;3.860;2023-03-01T14:50:55;10.70;99.90
21271;DHT22;10795;50.796;3.860;2023-03-01T14:53:27;10.50;99.90
21271;DHT22;10795;50.796;3.860;2023-03-01T14:56:01;10.50;99.90
21271;DHT22;10795;50.796;3.860;2023-03-01T14:58:32;10.40;99.90
21271;DHT22;10795;50.796;3.860;2023-03-01T15:01:00;10.40;99.90
21271;DHT22;10795;50.796;3.860;2023-03-01T15:03:37;10.60;99.90
21271;DHT22;10795;50.796;3.860;2023-03-01T15:06:05;10.50;99.90
21271;DHT22;10795;50.796;3.860;2023-03-01T15:08:32;10.40;99.90
21271;DHT22;10795;50.796;3.860;2023-03-01T15:13:39;10.20;99.90
21271;DHT22;10795;50.796;3.860;2023-03-01T15:16:12;10.30;99.90
21271;DHT22;10795;50.796;3.860;2023-03-01T15:18:45;10.20;99.90
21271;DHT22;10795;50.796;3.860;2023-03-01T15:21:23;9.90;99.90
21271;DHT22;10795;50.796;3.860;2023-03-01T15:23:55;9.80;99.90
21271;DHT22;10795;50.796;3.860;2023-03-01T15:26:37;9.80;99.90
21271;DHT22;10795;50.796;3.860;2023-03-01T15:29:04;9.60;99.90
21271;DHT22;10795;50.796;3.860;2023-03-01T15:31:42;9.60;99.90
21271;DHT22;10795;50.796;3.860;2023-03-01T15:34:22;9.70;99.90
21271;DHT22;10795;50.796;3.860;2023-03-01T15:36:51;9.60;99.90
21271;DHT22;10795;50.796;3.860;2023-03-01T15:39:40;9.80;99.90
21271;DHT22;10795;50.796;3.860;2023-03-01T15:44:38;9.50;99.90
21271;DHT22;10795;50.796;3.860;2023-03-01T15:47:21;9.50;99.90
21271;DHT22;10795;50.796;3.860;2023-03-01T15:49:48;9.40;99.90
21271;DHT22;10795;50.796;3.860;2023-03-01T15:52:33;9.50;99.90
21271;DHT22;10795;50.796;3.860;2023-03-01T15:55:06;9.40;99.90
21271;DHT22;10795;50.796;3.860;2023-03-01T15:57:32;9.30;99.90
21271;DHT22;10795;50.796;3.860;2023-03-01T15:59:58;9.20;99.90
21271;DHT22;10795;50.796;3.860;2023-03-01T16:02:24;9.10;99.90
21271;DHT22;10795;50.796;3.860;2023-03-01T16:04:50;9.00;99.90
21271;DHT22;10795;50.796;3.860;2023-03-01T16:07:16;9.00;99.90
21271;DHT22;10795;50.796;3.860;2023-03-01T16:09:42;8.90;99.90
21271;DHT22;10795;50.796;3.860;2023-03-01T16:12:15;8.90;99.90
21271;DHT22;10795;50.796;3.860;2023-03-01T16:14:42;8.90;99.90
21271;DHT22;10795;50.796;3.860;2023-03-01T16:17:07;8.90;99.90
21271;DHT22;10795;50.796;3.860;2023-03-01T16:19:36;8.90;99.90
21271;DHT22;10795;50.796;3.860;2023-03-01T16:22:03;8.80;99.90
21271;DHT22;10795;50.796;3.860;2023-03-01T16:24:29;8.80;99.90
21271;DHT22;10795;50.796;3.860;2023-03-01T16:26:55;8.90;99.90
21271;DHT22;10795;50.796;3.860;2023-03-01T16:29:21;8.80;99.90
21271;DHT22;10795;50.796;3.860;2023-03-01T16:31:47;8.80;99.90
21271;DHT22;10795;50.796;3.860;2023-03-01T16:34:13;8.70;99.90
21271;DHT22;10795;50.796;3.860;2023-03-01T16:36:39;8.60;99.90
21271;DHT22;10795;50.796;3.860;2023-03-01T16:39:04;8.70;99.90
21271;DHT22;10795;50.796;3.860;2023-03-01T16:41:31;8.70;99.90
21271;DHT22;10795;50.796;3.860;2023-03-01T16:43:57;8.70;99.90
21271;DHT22;10795;50.796;3.860;2023-03-01T16:46:26;8.60;99.90
21271;DHT22;10795;50.796;3.860;2023-03-01T16:48:54;8.40;99.90
21271;DHT22;10795;50.796;3.860;2023-03-01T16:51:21;8.50;99.90
21271;DHT22;10795;50.796;3.860;2023-03-01T16:53:48;8.40;99.90
21271;DHT22;10795;50.796;3.860;2023-03-01T16:56:14;8.30;99.90
21271;DHT22;10795;50.796;3.860;2023-03-01T16:58:42;8.30;99.90
21271;DHT22;10795;50.796;3.860;2023-03-01T17:01:11;8.20;99.90
21271;DHT22;10795;50.796;3.860;2023-03-01T17:03:38;8.20;99.90
21271;DHT22;10795;50.796;3.860;2023-03-01T17:06:07;8.00;99.90
21271;DHT22;10795;50.796;3.860;2023-03-01T17:08:33;8.20;99.90
21271;DHT22;10795;50.796;3.860;2023-03-01T17:11:10;8.20;99.90
21271;DHT22;10795;50.796;3.860;2023-03-01T17:13:37;8.10;99.90
21271;DHT22;10795;50.796;3.860;2023-03-01T17:16:05;8.00;99.90
21271;DHT22;10795;50.796;3.860;2023-03-01T17:18:31;8.10;99.90
21271;DHT22;10795;50.796;3.860;2023-03-01T17:20:58;8.00;99.90
21271;DHT22;10795;50.796;3.860;2023-03-01T17:23:24;8.00;99.90
21271;DHT22;10795;50.796;3.860;2023-03-01T17:25:50;7.80;99.90
21271;DHT22;10795;50.796;3.860;2023-03-01T17:28:16;7.80;99.90
21271;DHT22;10795;50.796;3.860;2023-03-01T17:30:43;7.80;99.90
21271;DHT22;10795;50.796;3.860;2023-03-01T17:33:10;7.80;99.90
21271;DHT22;10795;50.796;3.860;2023-03-01T17:35:37;7.90;99.90
21271;DHT22;10795;50.796;3.860;2023-03-01T17:38:04;7.80;99.90
21271;DHT22;10795;50.796;3.860;2023-03-01T17:40:30;7.60;99.90
21271;DHT22;10795;50.796;3.860;2023-03-01T17:42:57;7.80;99.90
21271;DHT22;10795;50.796;3.860;2023-03-01T17:45:23;7.60;99.90